sensor_id;sensor_type;location;lat;lon;timestamp;P1;durP1;ratioP1;P2;durP2;ratioP2
68653;SDS011;55636;51.108;13.622;2023-07-13T00:00:39;2.33;;;2.03;;
68653;SDS011;55636;51.108;13.622;2023-07-13T00:01:42;2.30;;;2.10;;
68653;SDS011;55636;51.108;13.622;2023-07-13T00:02:45;2.15;;;1.92;;
68653;SDS011;55636;51.108;13.622;2023-07-13T00:03:47;2.70;;;2.05;;
68653;SDS011;55636;51.108;13.622;2023-07-13T00:04:50;2.33;;;1.92;;
68653;SDS011;55636;51.108;13.622;2023-07-13T00:06:00;2.25;;;2.05;;
68653;SDS011;55636;51.108;13.622;2023-07-13T00:07:03;2.30;;;2.10;;
68653;SDS011;55636;51.108;13.622;2023-07-13T00:08:06;2.40;;;2.20;;
68653;SDS011;55636;51.108;13.622;2023-07-13T00:09:13;2.35;;;2.15;;
68653;SDS011;55636;51.108;13.622;2023-07-13T00:10:17;2.58;;;2.38;;
68653;SDS011;55636;51.108;13.622;2023-07-13T00:11:19;4.43;;;2.30;;
68653;SDS011;55636;51.108;13.622;2023-07-13T00:13:29;2.40;;;2.20;;
68653;SDS011;55636;51.108;13.622;2023-07-13T00:14:32;2.22;;;2.08;;
68653;SDS011;55636;51.108;13.622;2023-07-13T00:15:36;3.25;;;2.33;;
68653;SDS011;55636;51.108;13.622;2023-07-13T00:16:39;2.72;;;2.10;;
68653;SDS011;55636;51.108;13.622;2023-07-13T00:17:43;2.63;;;2.10;;
68653;SDS011;55636;51.108;13.622;2023-07-13T00:18:49;2.30;;;2.10;;
68653;SDS011;55636;51.108;13.622;2023-07-13T00:19:51;2.90;;;2.10;;
68653;SDS011;55636;51.108;13.622;2023-07-13T00:20:54;2.45;;;2.25;;
68653;SDS011;55636;51.108;13.622;2023-07-13T00:21:56;2.40;;;2.20;;
68653;SDS011;55636;51.108;13.622;2023-07-13T00:22:58;2.58;;;2.35;;
68653;SDS011;55636;51.108;13.622;2023-07-13T00:24:01;2.20;;;2.00;;
68653;SDS011;55636;51.108;13.622;2023-07-13T00:25:03;2.30;;;2.10;;
68653;SDS011;55636;51.108;13.622;2023-07-13T00:26:07;1.95;;;1.85;;
68653;SDS011;55636;51.108;13.622;2023-07-13T00:27:13;3.28;;;2.17;;
68653;SDS011;55636;51.108;13.622;2023-07-13T00:28:16;2.20;;;2.00;;
68653;SDS011;55636;51.108;13.622;2023-07-13T00:29:19;2.60;;;2.30;;
68653;SDS011;55636;51.108;13.622;2023-07-13T00:30:23;2.72;;;2.03;;
68653;SDS011;55636;51.108;13.622;2023-07-13T00:31:26;2.13;;;2.00;;
68653;SDS011;55636;51.108;13.622;2023-07-13T00:32:28;2.28;;;2.05;;
68653;SDS011;55636;51.108;13.622;2023-07-13T00:33:31;2.63;;;2.20;;
68653;SDS011;55636;51.108;13.622;2023-07-13T00:34:35;2.63;;;2.38;;
68653;SDS011;55636;51.108;13.622;2023-07-13T00:35:37;2.60;;;2.38;;
68653;SDS011;55636;51.108;13.622;2023-07-13T00:36:41;2.97;;;2.10;;
68653;SDS011;55636;51.108;13.622;2023-07-13T00:37:43;2.00;;;1.90;;
68653;SDS011;55636;51.108;13.622;2023-07-13T00:38:47;2.45;;;2.20;;
68653;SDS011;55636;51.108;13.622;2023-07-13T00:39:49;3.45;;;2.13;;
68653;SDS011;55636;51.108;13.622;2023-07-13T00:40:51;2.33;;;2.13;;
68653;SDS011;55636;51.108;13.622;2023-07-13T00:41:54;2.00;;;1.90;;
68653;SDS011;55636;51.108;13.622;2023-07-13T00:42:57;2.20;;;2.00;;
68653;SDS011;55636;51.108;13.622;2023-07-13T00:44:01;2.08;;;1.88;;
68653;SDS011;55636;51.108;13.622;2023-07-13T00:45:05;2.95;;;2.10;;
68653;SDS011;55636;51.108;13.622;2023-07-13T00:46:19;2.42;;;2.05;;
68653;SDS011;55636;51.108;13.622;2023-07-13T00:47:24;3.42;;;2.10;;
68653;SDS011;55636;51.108;13.622;2023-07-13T00:48:29;1.90;;;1.80;;
68653;SDS011;55636;51.108;13.622;2023-07-13T00:49:38;2.17;;;2.03;;
68653;SDS011;55636;51.108;13.622;2023-07-13T00:50:41;2.05;;;1.90;;
68653;SDS011;55636;51.108;13.622;2023-07-13T00:51:47;1.98;;;1.80;;
68653;SDS011;55636;51.108;13.622;2023-07-13T00:52:52;2.38;;;2.00;;
68653;SDS011;55636;51.108;13.622;2023-07-13T00:53:58;1.98;;;1.88;;
68653;SDS011;55636;51.108;13.622;2023-07-13T00:55:03;1.92;;;1.73;;
68653;SDS011;55636;51.108;13.622;2023-07-13T00:56:06;2.33;;;2.00;;
68653;SDS011;55636;51.108;13.622;2023-07-13T00:57:10;2.60;;;2.00;;
68653;SDS011;55636;51.108;13.622;2023-07-13T00:58:16;2.20;;;1.92;;
68653;SDS011;55636;51.108;13.622;2023-07-13T00:59:19;2.10;;;2.00;;
68653;SDS011;55636;51.108;13.622;2023-07-13T01:00:23;1.90;;;1.80;;
68653;SDS011;55636;51.108;13.622;2023-07-13T01:01:28;2.33;;;2.05;;
68653;SDS011;55636;51.108;13.622;2023-07-13T01:02:30;4.82;;;1.90;;
68653;SDS011;55636;51.108;13.622;2023-07-13T01:03:34;3.50;;;2.03;;
68653;SDS011;55636;51.108;13.622;2023-07-13T01:04:37;2.17;;;2.00;;
68653;SDS011;55636;51.108;13.622;2023-07-13T01:05:40;3.60;;;2.20;;
68653;SDS011;55636;51.108;13.622;2023-07-13T01:06:43;2.28;;;2.08;;
68653;SDS011;55636;51.108;13.622;2023-07-13T01:07:47;2.20;;;2.00;;
68653;SDS011;55636;51.108;13.622;2023-07-13T01:08:53;2.22;;;2.08;;
68653;SDS011;55636;51.108;13.622;2023-07-13T01:09:56;2.30;;;2.10;;
68653;SDS011;55636;51.108;13.622;2023-07-13T01:10:59;4.20;;;2.03;;
68653;SDS011;55636;51.108;13.622;2023-07-13T01:12:01;2.03;;;1.83;;
68653;SDS011;55636;51.108;13.622;2023-07-13T01:13:06;3.97;;;1.83;;
68653;SDS011;55636;51.108;13.622;2023-07-13T01:14:09;2.20;;;2.00;;
68653;SDS011;55636;51.108;13.622;2023-07-13T01:16:36;2.10;;;1.90;;
68653;SDS011;55636;51.108;13.622;2023-07-13T01:17:40;2.10;;;1.90;;
68653;SDS011;55636;51.108;13.622;2023-07-13T01:18:42;2.22;;;1.80;;
68653;SDS011;55636;51.108;13.622;2023-07-13T01:19:45;2.60;;;1.90;;
68653;SDS011;55636;51.108;13.622;2023-07-13T01:20:57;2.55;;;1.92;;
68653;SDS011;55636;51.108;13.622;2023-07-13T01:22:00;2.30;;;2.10;;
68653;SDS011;55636;51.108;13.622;2023-07-13T01:23:06;2.72;;;2.10;;
68653;SDS011;55636;51.108;13.622;2023-07-13T01:24:11;2.25;;;1.90;;
68653;SDS011;55636;51.108;13.622;2023-07-13T01:25:14;2.20;;;2.00;;
68653;SDS011;55636;51.108;13.622;2023-07-13T01:26:18;2.80;;;1.80;;
68653;SDS011;55636;51.108;13.622;2023-07-13T01:27:21;3.10;;;2.10;;
68653;SDS011;55636;51.108;13.622;2023-07-13T01:28:27;2.03;;;1.80;;
68653;SDS011;55636;51.108;13.622;2023-07-13T01:29:32;2.53;;;1.88;;
68653;SDS011;55636;51.108;13.622;2023-07-13T01:30:36;2.50;;;2.30;;
68653;SDS011;55636;51.108;13.622;2023-07-13T01:31:42;2.58;;;1.80;;
68653;SDS011;55636;51.108;13.622;2023-07-13T01:32:46;2.10;;;2.00;;
68653;SDS011;55636;51.108;13.622;2023-07-13T01:33:49;2.00;;;1.90;;
68653;SDS011;55636;51.108;13.622;2023-07-13T01:34:51;2.20;;;2.00;;
68653;SDS011;55636;51.108;13.622;2023-07-13T01:35:58;2.08;;;1.98;;
68653;SDS011;55636;51.108;13.622;2023-07-13T01:37:00;1.95;;;1.85;;
68653;SDS011;55636;51.108;13.622;2023-07-13T01:38:04;3.22;;;2.10;;
68653;SDS011;55636;51.108;13.622;2023-07-13T01:39:07;2.25;;;2.05;;
68653;SDS011;55636;51.108;13.622;2023-07-13T01:40:10;3.10;;;2.30;;
68653;SDS011;55636;51.108;13.622;2023-07-13T01:41:15;1.85;;;1.75;;
68653;SDS011;55636;51.108;13.622;2023-07-13T01:42:18;2.67;;;2.00;;
68653;SDS011;55636;51.108;13.622;2023-07-13T01:43:22;2.83;;;2.10;;
68653;SDS011;55636;51.108;13.622;2023-07-13T01:44:25;2.42;;;2.22;;
68653;SDS011;55636;51.108;13.622;2023-07-13T01:45:29;2.50;;;2.20;;
68653;SDS011;55636;51.108;13.622;2023-07-13T01:46:31;3.67;;;2.08;;
68653;SDS011;55636;51.108;13.622;2023-07-13T01:47:33;2.40;;;2.08;;
68653;SDS011;55636;51.108;13.622;2023-07-13T01:48:36;2.60;;;2.35;;
68653;SDS011;55636;51.108;13.622;2023-07-13T01:49:38;2.90;;;2.17;;
68653;SDS011;55636;51.108;13.622;2023-07-13T01:50:41;3.05;;;2.20;;
68653;SDS011;55636;51.108;13.622;2023-07-13T01:51:44;2.42;;;2.05;;
68653;SDS011;55636;51.108;13.622;2023-07-13T01:52:46;2.30;;;2.10;;
68653;SDS011;55636;51.108;13.622;2023-07-13T01:53:49;2.38;;;2.13;;
68653;SDS011;55636;51.108;13.622;2023-07-13T01:54:52;2.97;;;2.28;;
68653;SDS011;55636;51.108;13.622;2023-07-13T01:55:54;3.60;;;2.08;;
68653;SDS011;55636;51.108;13.622;2023-07-13T01:56:57;2.15;;;1.95;;
68653;SDS011;55636;51.108;13.622;2023-07-13T01:57:59;2.50;;;2.10;;
68653;SDS011;55636;51.108;13.622;2023-07-13T01:59:02;3.42;;;2.17;;
68653;SDS011;55636;51.108;13.622;2023-07-13T02:00:04;3.85;;;2.50;;
68653;SDS011;55636;51.108;13.622;2023-07-13T02:01:16;2.13;;;1.90;;
68653;SDS011;55636;51.108;13.622;2023-07-13T02:02:18;3.30;;;1.95;;
68653;SDS011;55636;51.108;13.622;2023-07-13T02:03:22;2.97;;;2.30;;
68653;SDS011;55636;51.108;13.622;2023-07-13T02:04:24;2.35;;;2.15;;
68653;SDS011;55636;51.108;13.622;2023-07-13T02:05:27;2.20;;;1.88;;
68653;SDS011;55636;51.108;13.622;2023-07-13T02:06:29;2.33;;;2.13;;
68653;SDS011;55636;51.108;13.622;2023-07-13T02:07:32;3.90;;;2.42;;
68653;SDS011;55636;51.108;13.622;2023-07-13T02:08:34;2.10;;;1.92;;
68653;SDS011;55636;51.108;13.622;2023-07-13T02:09:37;3.75;;;2.17;;
68653;SDS011;55636;51.108;13.622;2023-07-13T02:10:39;2.10;;;1.90;;
68653;SDS011;55636;51.108;13.622;2023-07-13T02:11:42;2.47;;;2.00;;
68653;SDS011;55636;51.108;13.622;2023-07-13T02:12:44;2.33;;;2.10;;
68653;SDS011;55636;51.108;13.622;2023-07-13T02:13:47;2.70;;;2.08;;
68653;SDS011;55636;51.108;13.622;2023-07-13T02:14:49;2.97;;;2.10;;
68653;SDS011;55636;51.108;13.622;2023-07-13T02:15:52;3.35;;;2.10;;
68653;SDS011;55636;51.108;13.622;2023-07-13T02:16:54;2.30;;;2.13;;
68653;SDS011;55636;51.108;13.622;2023-07-13T02:17:57;3.38;;;2.00;;
68653;SDS011;55636;51.108;13.622;2023-07-13T02:19:00;2.17;;;2.03;;
68653;SDS011;55636;51.108;13.622;2023-07-13T02:20:03;2.70;;;2.20;;
68653;SDS011;55636;51.108;13.622;2023-07-13T02:21:07;2.17;;;1.98;;
68653;SDS011;55636;51.108;13.622;2023-07-13T02:22:09;3.92;;;2.30;;
68653;SDS011;55636;51.108;13.622;2023-07-13T02:23:11;3.60;;;2.08;;
68653;SDS011;55636;51.108;13.622;2023-07-13T02:24:14;1.92;;;1.83;;
68653;SDS011;55636;51.108;13.622;2023-07-13T02:25:19;2.30;;;2.10;;
68653;SDS011;55636;51.108;13.622;2023-07-13T02:26:23;3.40;;;2.08;;
68653;SDS011;55636;51.108;13.622;2023-07-13T02:27:26;2.17;;;2.03;;
68653;SDS011;55636;51.108;13.622;2023-07-13T02:28:28;3.03;;;2.13;;
68653;SDS011;55636;51.108;13.622;2023-07-13T02:29:31;2.47;;;2.28;;
68653;SDS011;55636;51.108;13.622;2023-07-13T02:30:33;2.85;;;2.25;;
68653;SDS011;55636;51.108;13.622;2023-07-13T02:31:37;3.03;;;2.35;;
68653;SDS011;55636;51.108;13.622;2023-07-13T02:32:39;3.03;;;2.00;;
68653;SDS011;55636;51.108;13.622;2023-07-13T02:33:42;2.20;;;2.00;;
68653;SDS011;55636;51.108;13.622;2023-07-13T02:34:45;2.20;;;2.00;;
68653;SDS011;55636;51.108;13.622;2023-07-13T02:35:48;2.00;;;1.90;;
68653;SDS011;55636;51.108;13.622;2023-07-13T02:36:50;3.10;;;2.28;;
68653;SDS011;55636;51.108;13.622;2023-07-13T02:37:53;2.70;;;2.10;;
68653;SDS011;55636;51.108;13.622;2023-07-13T02:38:55;2.25;;;1.95;;
68653;SDS011;55636;51.108;13.622;2023-07-13T02:39:57;2.40;;;2.20;;
68653;SDS011;55636;51.108;13.622;2023-07-13T02:41:00;2.45;;;2.20;;
68653;SDS011;55636;51.108;13.622;2023-07-13T02:42:03;2.53;;;2.33;;
68653;SDS011;55636;51.108;13.622;2023-07-13T02:43:06;2.30;;;2.10;;
68653;SDS011;55636;51.108;13.622;2023-07-13T02:44:08;2.53;;;2.10;;
68653;SDS011;55636;51.108;13.622;2023-07-13T02:45:11;2.38;;;2.15;;
68653;SDS011;55636;51.108;13.622;2023-07-13T02:46:15;2.50;;;2.30;;
68653;SDS011;55636;51.108;13.622;2023-07-13T02:47:18;2.33;;;2.13;;
68653;SDS011;55636;51.108;13.622;2023-07-13T02:48:21;2.70;;;2.22;;
68653;SDS011;55636;51.108;13.622;2023-07-13T02:49:25;3.67;;;2.30;;
68653;SDS011;55636;51.108;13.622;2023-07-13T02:50:28;2.25;;;2.05;;
68653;SDS011;55636;51.108;13.622;2023-07-13T02:51:30;3.22;;;2.13;;
68653;SDS011;55636;51.108;13.622;2023-07-13T02:52:36;2.50;;;2.20;;
68653;SDS011;55636;51.108;13.622;2023-07-13T02:53:38;3.70;;;2.65;;
68653;SDS011;55636;51.108;13.622;2023-07-13T02:54:41;3.20;;;2.40;;
68653;SDS011;55636;51.108;13.622;2023-07-13T02:55:43;2.50;;;2.30;;
68653;SDS011;55636;51.108;13.622;2023-07-13T02:56:49;2.78;;;2.28;;
68653;SDS011;55636;51.108;13.622;2023-07-13T02:57:51;2.42;;;2.22;;
68653;SDS011;55636;51.108;13.622;2023-07-13T02:58:54;2.28;;;2.08;;
68653;SDS011;55636;51.108;13.622;2023-07-13T02:59:56;2.78;;;2.15;;
68653;SDS011;55636;51.108;13.622;2023-07-13T03:00:59;5.63;;;2.50;;
68653;SDS011;55636;51.108;13.622;2023-07-13T03:02:02;2.92;;;2.72;;
68653;SDS011;55636;51.108;13.622;2023-07-13T03:03:05;3.17;;;2.10;;
68653;SDS011;55636;51.108;13.622;2023-07-13T03:04:08;2.55;;;2.35;;
68653;SDS011;55636;51.108;13.622;2023-07-13T03:05:10;2.42;;;2.22;;
68653;SDS011;55636;51.108;13.622;2023-07-13T03:06:16;2.35;;;2.15;;
68653;SDS011;55636;51.108;13.622;2023-07-13T03:07:25;2.40;;;2.00;;
68653;SDS011;55636;51.108;13.622;2023-07-13T03:08:31;3.80;;;2.22;;
68653;SDS011;55636;51.108;13.622;2023-07-13T03:09:34;2.50;;;2.30;;
68653;SDS011;55636;51.108;13.622;2023-07-13T03:10:39;3.10;;;2.17;;
68653;SDS011;55636;51.108;13.622;2023-07-13T03:11:45;2.53;;;2.28;;
68653;SDS011;55636;51.108;13.622;2023-07-13T03:12:55;4.07;;;2.53;;
68653;SDS011;55636;51.108;13.622;2023-07-13T03:14:02;2.42;;;2.22;;
68653;SDS011;55636;51.108;13.622;2023-07-13T03:15:08;2.50;;;2.30;;
68653;SDS011;55636;51.108;13.622;2023-07-13T03:16:14;2.42;;;2.20;;
68653;SDS011;55636;51.108;13.622;2023-07-13T03:17:23;2.40;;;2.13;;
68653;SDS011;55636;51.108;13.622;2023-07-13T03:18:27;3.65;;;2.58;;
68653;SDS011;55636;51.108;13.622;2023-07-13T03:19:31;2.55;;;2.35;;
68653;SDS011;55636;51.108;13.622;2023-07-13T03:20:35;2.80;;;2.22;;
68653;SDS011;55636;51.108;13.622;2023-07-13T03:21:38;3.15;;;2.38;;
68653;SDS011;55636;51.108;13.622;2023-07-13T03:22:40;2.90;;;2.50;;
68653;SDS011;55636;51.108;13.622;2023-07-13T03:23:45;6.10;;;2.40;;
68653;SDS011;55636;51.108;13.622;2023-07-13T03:24:49;3.47;;;2.35;;
68653;SDS011;55636;51.108;13.622;2023-07-13T03:26:00;2.22;;;2.10;;
68653;SDS011;55636;51.108;13.622;2023-07-13T03:27:05;2.50;;;2.30;;
68653;SDS011;55636;51.108;13.622;2023-07-13T03:28:11;3.45;;;2.25;;
68653;SDS011;55636;51.108;13.622;2023-07-13T03:29:14;2.90;;;2.55;;
68653;SDS011;55636;51.108;13.622;2023-07-13T03:30:17;3.17;;;2.30;;
68653;SDS011;55636;51.108;13.622;2023-07-13T03:31:24;2.90;;;2.53;;
68653;SDS011;55636;51.108;13.622;2023-07-13T03:32:28;2.58;;;2.38;;
68653;SDS011;55636;51.108;13.622;2023-07-13T03:33:31;2.50;;;2.28;;
68653;SDS011;55636;51.108;13.622;2023-07-13T03:34:34;2.67;;;2.30;;
68653;SDS011;55636;51.108;13.622;2023-07-13T03:35:39;3.05;;;2.67;;
68653;SDS011;55636;51.108;13.622;2023-07-13T03:36:43;2.92;;;2.58;;
68653;SDS011;55636;51.108;13.622;2023-07-13T03:37:47;3.65;;;2.58;;
68653;SDS011;55636;51.108;13.622;2023-07-13T03:38:54;3.28;;;2.40;;
68653;SDS011;55636;51.108;13.622;2023-07-13T03:40:02;2.80;;;2.42;;
68653;SDS011;55636;51.108;13.622;2023-07-13T03:41:05;2.90;;;2.40;;
68653;SDS011;55636;51.108;13.622;2023-07-13T03:42:08;3.22;;;2.42;;
68653;SDS011;55636;51.108;13.622;2023-07-13T03:43:10;2.67;;;2.45;;
68653;SDS011;55636;51.108;13.622;2023-07-13T03:44:12;2.50;;;2.30;;
68653;SDS011;55636;51.108;13.622;2023-07-13T03:45:15;3.10;;;2.55;;
68653;SDS011;55636;51.108;13.622;2023-07-13T03:46:18;3.13;;;2.58;;
68653;SDS011;55636;51.108;13.622;2023-07-13T03:47:22;2.80;;;2.42;;
68653;SDS011;55636;51.108;13.622;2023-07-13T03:48:24;3.42;;;2.30;;
68653;SDS011;55636;51.108;13.622;2023-07-13T03:49:27;3.45;;;2.42;;
68653;SDS011;55636;51.108;13.622;2023-07-13T03:50:29;3.10;;;2.53;;
68653;SDS011;55636;51.108;13.622;2023-07-13T03:51:32;4.10;;;2.50;;
68653;SDS011;55636;51.108;13.622;2023-07-13T03:52:35;3.28;;;2.50;;
68653;SDS011;55636;51.108;13.622;2023-07-13T03:53:38;4.20;;;2.90;;
68653;SDS011;55636;51.108;13.622;2023-07-13T03:54:42;4.15;;;2.60;;
68653;SDS011;55636;51.108;13.622;2023-07-13T03:55:45;3.42;;;2.60;;
68653;SDS011;55636;51.108;13.622;2023-07-13T03:56:48;3.90;;;2.65;;
68653;SDS011;55636;51.108;13.622;2023-07-13T03:57:53;4.53;;;2.80;;
68653;SDS011;55636;51.108;13.622;2023-07-13T03:58:59;3.35;;;2.53;;
68653;SDS011;55636;51.108;13.622;2023-07-13T04:00:02;2.80;;;2.45;;
68653;SDS011;55636;51.108;13.622;2023-07-13T04:01:17;3.42;;;2.83;;
68653;SDS011;55636;51.108;13.622;2023-07-13T04:02:21;3.08;;;2.65;;
68653;SDS011;55636;51.108;13.622;2023-07-13T04:03:23;2.80;;;2.60;;
68653;SDS011;55636;51.108;13.622;2023-07-13T04:04:27;4.22;;;2.90;;
68653;SDS011;55636;51.108;13.622;2023-07-13T04:05:29;3.25;;;2.85;;
68653;SDS011;55636;51.108;13.622;2023-07-13T04:06:32;3.00;;;2.70;;
68653;SDS011;55636;51.108;13.622;2023-07-13T04:07:36;2.75;;;2.55;;
68653;SDS011;55636;51.108;13.622;2023-07-13T04:08:38;2.78;;;2.58;;
68653;SDS011;55636;51.108;13.622;2023-07-13T04:09:41;3.05;;;2.70;;
68653;SDS011;55636;51.108;13.622;2023-07-13T04:10:45;2.50;;;2.30;;
68653;SDS011;55636;51.108;13.622;2023-07-13T04:11:47;3.22;;;2.80;;
68653;SDS011;55636;51.108;13.622;2023-07-13T04:12:50;4.75;;;2.58;;
68653;SDS011;55636;51.108;13.622;2023-07-13T04:13:52;3.35;;;2.55;;
68653;SDS011;55636;51.108;13.622;2023-07-13T04:14:55;3.53;;;2.58;;
68653;SDS011;55636;51.108;13.622;2023-07-13T04:15:57;2.65;;;2.45;;
68653;SDS011;55636;51.108;13.622;2023-07-13T04:16:59;2.80;;;2.40;;
68653;SDS011;55636;51.108;13.622;2023-07-13T04:18:02;4.22;;;2.58;;
68653;SDS011;55636;51.108;13.622;2023-07-13T04:19:05;2.60;;;2.40;;
68653;SDS011;55636;51.108;13.622;2023-07-13T04:20:07;2.58;;;2.38;;
68653;SDS011;55636;51.108;13.622;2023-07-13T04:21:10;4.07;;;2.80;;
68653;SDS011;55636;51.108;13.622;2023-07-13T04:22:13;3.35;;;2.20;;
68653;SDS011;55636;51.108;13.622;2023-07-13T04:23:18;3.42;;;2.58;;
68653;SDS011;55636;51.108;13.622;2023-07-13T04:24:21;2.63;;;2.42;;
68653;SDS011;55636;51.108;13.622;2023-07-13T04:25:23;2.63;;;2.40;;
68653;SDS011;55636;51.108;13.622;2023-07-13T04:26:26;3.17;;;2.42;;
68653;SDS011;55636;51.108;13.622;2023-07-13T04:27:28;4.63;;;2.78;;
68653;SDS011;55636;51.108;13.622;2023-07-13T04:28:31;3.38;;;2.50;;
68653;SDS011;55636;51.108;13.622;2023-07-13T04:29:33;3.45;;;2.55;;
68653;SDS011;55636;51.108;13.622;2023-07-13T04:30:35;3.88;;;2.80;;
68653;SDS011;55636;51.108;13.622;2023-07-13T04:31:38;4.13;;;2.70;;
68653;SDS011;55636;51.108;13.622;2023-07-13T04:32:40;2.97;;;2.55;;
68653;SDS011;55636;51.108;13.622;2023-07-13T04:33:43;3.63;;;2.88;;
68653;SDS011;55636;51.108;13.622;2023-07-13T04:34:48;2.85;;;2.38;;
68653;SDS011;55636;51.108;13.622;2023-07-13T04:35:55;3.90;;;2.80;;
68653;SDS011;55636;51.108;13.622;2023-07-13T04:36:58;5.00;;;2.75;;
68653;SDS011;55636;51.108;13.622;2023-07-13T04:38:01;3.83;;;2.55;;
68653;SDS011;55636;51.108;13.622;2023-07-13T04:39:04;5.18;;;2.55;;
68653;SDS011;55636;51.108;13.622;2023-07-13T04:40:06;3.67;;;2.60;;
68653;SDS011;55636;51.108;13.622;2023-07-13T04:41:14;2.65;;;2.30;;
68653;SDS011;55636;51.108;13.622;2023-07-13T04:42:17;3.03;;;2.47;;
68653;SDS011;55636;51.108;13.622;2023-07-13T04:43:20;2.80;;;2.60;;
68653;SDS011;55636;51.108;13.622;2023-07-13T04:44:22;4.13;;;2.42;;
68653;SDS011;55636;51.108;13.622;2023-07-13T04:45:25;4.00;;;2.53;;
68653;SDS011;55636;51.108;13.622;2023-07-13T04:46:27;4.85;;;2.88;;
68653;SDS011;55636;51.108;13.622;2023-07-13T04:47:30;3.90;;;2.35;;
68653;SDS011;55636;51.108;13.622;2023-07-13T04:48:34;3.42;;;2.90;;
68653;SDS011;55636;51.108;13.622;2023-07-13T04:49:37;2.88;;;2.63;;
68653;SDS011;55636;51.108;13.622;2023-07-13T04:50:39;3.35;;;2.60;;
68653;SDS011;55636;51.108;13.622;2023-07-13T04:51:41;3.70;;;2.63;;
68653;SDS011;55636;51.108;13.622;2023-07-13T04:52:44;2.75;;;2.45;;
68653;SDS011;55636;51.108;13.622;2023-07-13T04:53:46;2.85;;;2.55;;
68653;SDS011;55636;51.108;13.622;2023-07-13T04:54:49;4.05;;;2.78;;
68653;SDS011;55636;51.108;13.622;2023-07-13T04:55:51;2.53;;;2.30;;
68653;SDS011;55636;51.108;13.622;2023-07-13T04:56:53;6.00;;;2.90;;
68653;SDS011;55636;51.108;13.622;2023-07-13T04:57:56;4.15;;;2.83;;
68653;SDS011;55636;51.108;13.622;2023-07-13T04:59:00;4.93;;;2.83;;
68653;SDS011;55636;51.108;13.622;2023-07-13T05:00:03;3.25;;;2.95;;
68653;SDS011;55636;51.108;13.622;2023-07-13T05:01:09;5.38;;;2.97;;
68653;SDS011;55636;51.108;13.622;2023-07-13T05:02:12;2.70;;;2.33;;
68653;SDS011;55636;51.108;13.622;2023-07-13T05:03:15;4.30;;;2.65;;
68653;SDS011;55636;51.108;13.622;2023-07-13T05:04:17;3.33;;;2.50;;
68653;SDS011;55636;51.108;13.622;2023-07-13T05:05:21;3.38;;;2.40;;
68653;SDS011;55636;51.108;13.622;2023-07-13T05:06:24;3.67;;;2.30;;
68653;SDS011;55636;51.108;13.622;2023-07-13T05:07:26;2.85;;;2.65;;
68653;SDS011;55636;51.108;13.622;2023-07-13T05:08:28;2.97;;;2.67;;
68653;SDS011;55636;51.108;13.622;2023-07-13T05:09:31;3.42;;;2.65;;
68653;SDS011;55636;51.108;13.622;2023-07-13T05:10:34;4.43;;;2.45;;
68653;SDS011;55636;51.108;13.622;2023-07-13T05:11:37;3.38;;;2.33;;
68653;SDS011;55636;51.108;13.622;2023-07-13T05:12:40;2.58;;;2.25;;
68653;SDS011;55636;51.108;13.622;2023-07-13T05:13:42;4.07;;;2.63;;
68653;SDS011;55636;51.108;13.622;2023-07-13T05:14:45;5.57;;;2.40;;
68653;SDS011;55636;51.108;13.622;2023-07-13T05:15:47;3.75;;;2.50;;
68653;SDS011;55636;51.108;13.622;2023-07-13T05:16:58;2.50;;;2.30;;
68653;SDS011;55636;51.108;13.622;2023-07-13T05:18:00;2.88;;;2.50;;
68653;SDS011;55636;51.108;13.622;2023-07-13T05:19:03;2.97;;;2.40;;
68653;SDS011;55636;51.108;13.622;2023-07-13T05:20:06;2.92;;;2.55;;
68653;SDS011;55636;51.108;13.622;2023-07-13T05:21:10;3.30;;;2.30;;
68653;SDS011;55636;51.108;13.622;2023-07-13T05:22:15;2.90;;;2.60;;
68653;SDS011;55636;51.108;13.622;2023-07-13T05:23:17;2.95;;;2.50;;
68653;SDS011;55636;51.108;13.622;2023-07-13T05:24:19;3.15;;;2.85;;
68653;SDS011;55636;51.108;13.622;2023-07-13T05:25:26;2.90;;;2.60;;
68653;SDS011;55636;51.108;13.622;2023-07-13T05:26:29;3.33;;;2.58;;
68653;SDS011;55636;51.108;13.622;2023-07-13T05:27:31;2.70;;;2.50;;
68653;SDS011;55636;51.108;13.622;2023-07-13T05:28:34;3.03;;;2.72;;
68653;SDS011;55636;51.108;13.622;2023-07-13T05:29:37;2.90;;;2.50;;
68653;SDS011;55636;51.108;13.622;2023-07-13T05:30:39;2.55;;;2.35;;
68653;SDS011;55636;51.108;13.622;2023-07-13T05:31:41;3.70;;;2.40;;
68653;SDS011;55636;51.108;13.622;2023-07-13T05:32:44;2.90;;;2.60;;
68653;SDS011;55636;51.108;13.622;2023-07-13T05:33:47;2.90;;;2.50;;
68653;SDS011;55636;51.108;13.622;2023-07-13T05:34:50;4.30;;;2.60;;
68653;SDS011;55636;51.108;13.622;2023-07-13T05:35:54;2.85;;;2.60;;
68653;SDS011;55636;51.108;13.622;2023-07-13T05:36:57;2.85;;;2.42;;
68653;SDS011;55636;51.108;13.622;2023-07-13T05:37:59;2.75;;;2.55;;
68653;SDS011;55636;51.108;13.622;2023-07-13T05:39:02;2.58;;;2.38;;
68653;SDS011;55636;51.108;13.622;2023-07-13T05:40:05;2.60;;;2.40;;
68653;SDS011;55636;51.108;13.622;2023-07-13T05:41:08;2.80;;;2.50;;
68653;SDS011;55636;51.108;13.622;2023-07-13T05:42:11;7.28;;;2.50;;
68653;SDS011;55636;51.108;13.622;2023-07-13T05:43:14;5.85;;;2.55;;
68653;SDS011;55636;51.108;13.622;2023-07-13T05:44:17;2.70;;;2.25;;
68653;SDS011;55636;51.108;13.622;2023-07-13T05:45:19;2.60;;;2.40;;
68653;SDS011;55636;51.108;13.622;2023-07-13T05:46:22;2.40;;;2.20;;
68653;SDS011;55636;51.108;13.622;2023-07-13T05:47:24;3.35;;;2.08;;
68653;SDS011;55636;51.108;13.622;2023-07-13T05:48:30;2.65;;;2.35;;
68653;SDS011;55636;51.108;13.622;2023-07-13T05:49:32;5.20;;;2.70;;
68653;SDS011;55636;51.108;13.622;2023-07-13T05:50:35;3.65;;;2.67;;
68653;SDS011;55636;51.108;13.622;2023-07-13T05:51:37;2.78;;;2.50;;
68653;SDS011;55636;51.108;13.622;2023-07-13T05:52:40;2.50;;;2.30;;
68653;SDS011;55636;51.108;13.622;2023-07-13T05:53:42;5.28;;;2.55;;
68653;SDS011;55636;51.108;13.622;2023-07-13T05:54:45;3.90;;;2.60;;
68653;SDS011;55636;51.108;13.622;2023-07-13T05:55:47;3.45;;;2.42;;
68653;SDS011;55636;51.108;13.622;2023-07-13T05:56:52;3.38;;;2.58;;
68653;SDS011;55636;51.108;13.622;2023-07-13T05:57:54;3.22;;;2.63;;
68653;SDS011;55636;51.108;13.622;2023-07-13T05:58:57;2.85;;;2.50;;
68653;SDS011;55636;51.108;13.622;2023-07-13T06:00:00;3.92;;;2.45;;
68653;SDS011;55636;51.108;13.622;2023-07-13T06:01:13;2.85;;;2.42;;
68653;SDS011;55636;51.108;13.622;2023-07-13T06:02:17;2.55;;;2.35;;
68653;SDS011;55636;51.108;13.622;2023-07-13T06:03:19;2.70;;;2.50;;
68653;SDS011;55636;51.108;13.622;2023-07-13T06:04:21;3.03;;;2.30;;
68653;SDS011;55636;51.108;13.622;2023-07-13T06:05:24;2.47;;;2.28;;
68653;SDS011;55636;51.108;13.622;2023-07-13T06:06:26;2.60;;;2.40;;
68653;SDS011;55636;51.108;13.622;2023-07-13T06:07:29;2.63;;;2.28;;
68653;SDS011;55636;51.108;13.622;2023-07-13T06:08:32;5.05;;;2.45;;
68653;SDS011;55636;51.108;13.622;2023-07-13T06:09:34;3.15;;;2.38;;
68653;SDS011;55636;51.108;13.622;2023-07-13T06:10:37;2.83;;;2.40;;
68653;SDS011;55636;51.108;13.622;2023-07-13T06:11:39;3.25;;;2.45;;
68653;SDS011;55636;51.108;13.622;2023-07-13T06:12:42;3.53;;;2.85;;
68653;SDS011;55636;51.108;13.622;2023-07-13T06:13:45;4.97;;;2.60;;
68653;SDS011;55636;51.108;13.622;2023-07-13T06:14:47;3.22;;;2.70;;
68653;SDS011;55636;51.108;13.622;2023-07-13T06:15:49;2.75;;;2.45;;
68653;SDS011;55636;51.108;13.622;2023-07-13T06:16:52;3.38;;;2.60;;
68653;SDS011;55636;51.108;13.622;2023-07-13T06:17:54;3.33;;;2.70;;
68653;SDS011;55636;51.108;13.622;2023-07-13T06:18:57;2.85;;;2.60;;